Mr. Cass — WDB5593 — position and weather

sailwx.info

Track history (hours):
 
Tides and Currents Weather Stations Pressure Air Temp Water Temp Dewpoint Dewpoint Depression Visibility Wind Speed Wind Dir Waves Ship Positions

Mr. Cass

Owner: Cass Marine Towing LLC, Marrero, LA. More information available from US FCC via Universal Licensing System and Coast Guard Vessel Documentation Center.

Last reported at 2018-Feb-18 16:03 UTC. Time now 2018-Feb-19 05:55 UTC.
Position N 29°25' W 090°43'.

Length 17 m; draft 3.5 m.

Type: Towing. MMSI: 366911310.

Date/timePositionNaut miles runAvg speedWind from/ knotsBaromVisibWave heightAir tempDewpointWater temp
2018-Feb-18 16:03N 29°25' W 090°43'1 6.2
2018-Feb-18 15:57N 29°26' W 090°43'3 6.1
2018-Feb-18 15:31N 29°28' W 090°43'3 6.1
2018-Feb-18 15:00N 29°31' W 090°42'3 5.3
2018-Feb-18 14:30N 29°34' W 090°43'2 4.4
2018-Feb-18 14:01N 29°36' W 090°43'1 2.6
2018-Feb-18 13:31N 29°36' W 090°41'0 0.0
2018-Feb-18 13:01N 29°36' W 090°41'0 0.0
2018-Feb-18 12:31N 29°36' W 090°41'0 0.0
2018-Feb-18 12:01N 29°36' W 090°41'0 0.0
2018-Feb-18 11:30N 29°36' W 090°41'0 0.0
2018-Feb-18 11:01N 29°36' W 090°41'0 0.0
2018-Feb-18 10:31N 29°36' W 090°41'0 0.0
2018-Feb-18 10:01N 29°36' W 090°41'0 0.0
2018-Feb-18 09:31N 29°36' W 090°41'0 0.0
2018-Feb-18 09:00N 29°36' W 090°41'0 0.0
2018-Feb-18 08:31N 29°36' W 090°41'0 0.0
2018-Feb-18 08:01N 29°36' W 090°41'0 0.0
2018-Feb-18 07:31N 29°36' W 090°41'0 0.0
2018-Feb-18 07:01N 29°36' W 090°41'0 0.1
2018-Feb-18 06:30N 29°36' W 090°41'0 0.1
2018-Feb-18 06:01N 29°36' W 090°41'2 3.9
2018-Feb-18 05:29N 29°36' W 090°39'2 4.2
2018-Feb-18 05:00N 29°35' W 090°37'2 4.3
2018-Feb-18 04:30N 29°34' W 090°35'3 4.8
2018-Feb-18 03:55N 29°34' W 090°31'  
Track history (hours):
 
Tides and Currents Weather Stations Pressure Air Temp Water Temp Dewpoint Dewpoint Depression Visibility Wind Speed Wind Dir Waves Ship Positions

Mr. Cass

Owner: Cass Marine Towing LLC, Marrero, LA. More information available from US FCC via Universal Licensing System and Coast Guard Vessel Documentation Center.

Last reported at 2018-Feb-18 16:03 UTC. Time now 2018-Feb-19 05:55 UTC.
Position N 29°25' W 090°43'.

Length 17 m; draft 3.5 m.

Type: Towing. MMSI: 366911310.

Date/timePositionNaut miles runAvg speedWind from/ knotsBaromVisibWave heightAir tempDewpointWater temp
2018-Feb-18 16:03N 29°25' W 090°43'1 6.2
2018-Feb-18 15:57N 29°26' W 090°43'3 6.1
2018-Feb-18 15:31N 29°28' W 090°43'3 6.1
2018-Feb-18 15:00N 29°31' W 090°42'3 5.3
2018-Feb-18 14:30N 29°34' W 090°43'2 4.4
2018-Feb-18 14:01N 29°36' W 090°43'1 2.6
2018-Feb-18 13:31N 29°36' W 090°41'0 0.0
2018-Feb-18 13:01N 29°36' W 090°41'0 0.0
2018-Feb-18 12:31N 29°36' W 090°41'0 0.0
2018-Feb-18 12:01N 29°36' W 090°41'0 0.0
2018-Feb-18 11:30N 29°36' W 090°41'0 0.0
2018-Feb-18 11:01N 29°36' W 090°41'0 0.0
2018-Feb-18 10:31N 29°36' W 090°41'0 0.0
2018-Feb-18 10:01N 29°36' W 090°41'0 0.0
2018-Feb-18 09:31N 29°36' W 090°41'0 0.0
2018-Feb-18 09:00N 29°36' W 090°41'0 0.0
2018-Feb-18 08:31N 29°36' W 090°41'0 0.0
2018-Feb-18 08:01N 29°36' W 090°41'0 0.0
2018-Feb-18 07:31N 29°36' W 090°41'0 0.0
2018-Feb-18 07:01N 29°36' W 090°41'0 0.1
2018-Feb-18 06:30N 29°36' W 090°41'0 0.1
2018-Feb-18 06:01N 29°36' W 090°41'2 3.9
2018-Feb-18 05:29N 29°36' W 090°39'2 4.2
2018-Feb-18 05:00N 29°35' W 090°37'2 4.3
2018-Feb-18 04:30N 29°34' W 090°35'3 4.8
2018-Feb-18 03:55N 29°34' W 090°31'  

Dump ship's entire track history